Hawaii METAR Reports

 


Warning: A non-numeric value encountered in /home/dwayneya/public_html/wx/get-metar-conditions-inc.php on line 1014
PHOG - Kahului, Hawaii, USA
Distance from station: WNW 8mi, 13km
Updated: Wed, 28-Feb-2024 3:54pm HST
Partly Cloudy
Partly Cloudy
 Wind from NE
Wind: NE 21 mph , 33 km/h, Gust: 32 mph , 52 km/h
Temperature: 79°F , 26°C
Dew Point: 63°F , 17°C
Humidity: 58%
Barometer: 30.03 inHg , 1016.9 hPa
Clouds: Partly Cloudy
Visibility: 10 miles , 16 km
Cloud details: Few Clouds 3000 ft
Partly Cloudy 5500 ft
2024/02/29 01:54 PHOG 290154Z 04018G28KT 10SM FEW030 SCT055 26/17 A3003 RMK AO2 PK WND 03029/0143 SLP174 T02560172 $
PHJH - Lahaina/West Mau, Hawaii, USA
Distance from station: WNW 24mi, 39km
Updated: Thu, 26-Jan-2023 6:05pm HST
NOT Current
Light drizzle, Partly cloudy
Light drizzle, Partly cloudy
 Wind from NNE
Wind: NNE 13 mph , 20 km/h, Gust: 20 mph , 31 km/h
Barometer: 30.01 inHg , 1016.3 hPa
Summary: Light Drizzle
Clouds: Partly Cloudy
Visibility: S miles , 0 km
Cloud details: Partly Cloudy 1400 ft
Partly Cloudy 2200 ft
Partly Cloudy 3000 ft
2023/01/27 04:05 PHJH 270405Z AUTO 02011G17KT SSM -DZ SCT014 SCT022 SCT030 A3001
 
PHNY - Lanai City Airpo, Hawaii, USA
Distance from station: W 40mi, 65km
Updated: Wed, 28-Feb-2024 3:56pm HST
Partly Cloudy
Partly Cloudy
 Wind from NE
Wind: NE 20 mph , 31 km/h
Temperature: 70°F , 21°C
Dew Point: 63°F , 17°C
Humidity: 78%
Barometer: 30.07 inHg , 1018.3 hPa
Clouds: Partly Cloudy
Visibility: 10 miles , 16 km
Cloud details: Partly Cloudy 3800 ft
2024/02/29 01:56 PHNY 290156Z AUTO 05017KT 10SM SCT038 21/17 A3007 RMK AO2 SLP166 T02110167
PHMK - Molokai, Hawaii, USA
Distance from station: WNW 55mi, 88km
Updated: Wed, 28-Feb-2024 3:54pm HST
Partly Cloudy
Partly Cloudy
 Wind from NNE
Wind: NNE 14 mph , 22 km/h, Gust: 28 mph , 44 km/h
Temperature: 73°F , 23°C
Dew Point: 63°F , 17°C
Humidity: 69%
Barometer: 30.05 inHg , 1017.6 hPa
Clouds: Partly Cloudy
Visibility: 10 miles , 16 km
Cloud details: Few Clouds 2200 ft
Partly Cloudy 4200 ft
2024/02/29 01:54 PHMK 290154Z 03012G24KT 10SM FEW022 SCT042 23/17 A3005 RMK AO2 SLP181 T02330172
 
PHKO - Kailua/Kona, Hawaii, USA
Distance from station: SSE 79mi, 128km
Updated: Wed, 28-Feb-2024 3:53pm HST
Mostly Cloudy
Mostly Cloudy
 Wind from SSW
Wind: SSW 9 mph , 15 km/h
Temperature: 81°F , 27°C
Heat Index: 83°F , 28°C
Dew Point: 64°F , 18°C
Humidity: 58%
Barometer: 30.00 inHg , 1015.9 hPa
Clouds: Mostly Cloudy
Visibility: 10 miles , 16 km
Cloud details: Mostly Cloudy 6000 ft
2024/02/29 01:53 PHKO 290153Z 20008KT 10SM BKN060 27/18 A3000 RMK AO2 SLP159 T02670178
PHSF - Bradshaw Aaf/Haw, Hawaii, USA
Distance from station: SE 90mi, 145km
Updated: Wed, 28-Feb-2024 3:55pm HST
Mostly Cloudy
Mostly Cloudy
 Wind from ESE
Wind: ESE 5 mph , 7 km/h
Temperature: 61°F , 16°C
Dew Point: 41°F , 5°C
Humidity: 48%
Barometer: 30.29 inHg , 1025.7 hPa
Clouds: Mostly Cloudy
Visibility: 9 miles , 14 km
Cloud details: Partly Cloudy 3600 ft
Partly Cloudy 17000 ft
Mostly Cloudy 19000 ft
2024/02/29 01:55 PHSF 290155Z AUTO 11004KT 9SM SCT036 SCT170 BKN190 16/05 A3029 RMK AO2 SLP156 T01630047 $
 
PHNG - Kaneohe Mcas, Hawaii, USA
Distance from station: WNW 102mi, 164km
Updated: Wed, 28-Feb-2024 3:57pm HST
Mostly Cloudy
Mostly Cloudy
 Wind from NE
Wind: NE 18 mph , 30 km/h, Gust: 26 mph , 43 km/h
Temperature: 79°F , 26°C
Dew Point: 66°F , 19°C
Humidity: 65%
Barometer: 30.04 inHg , 1017.3 hPa
Clouds: Mostly Cloudy
Visibility: 7 miles , 11 km
Cloud details: Partly Cloudy 2500 ft
Mostly Cloudy 3000 ft
2024/02/29 01:57 PHNG 290157Z 05016G23KT 7SM SCT025 BKN030 26/19 A3004 RMK AO2 SLP168 T02560189
PHNL - Honolulu, Hawaii, USA
Distance from station: WNW 108mi, 174km
Updated: Wed, 28-Feb-2024 3:53pm HST
Mostly Cloudy
Mostly Cloudy
 Wind from NE
Wind: NE 20 mph , 31 km/h, Gust: 26 mph , 43 km/h
Temperature: 75°F , 24°C
Dew Point: 61°F , 16°C
Humidity: 61%
Barometer: 30.05 inHg , 1017.6 hPa
Clouds: Mostly Cloudy
Visibility: 10 miles , 16 km
Cloud details: Few Clouds 2300 ft
Few Clouds 3500 ft
Mostly Cloudy 24000 ft
2024/02/29 01:53 PHNL 290153Z 05017G23KT 10SM FEW023 FEW035 BKN240 24/16 A3005 RMK AO2 RAB03E14 SLP174 P0000 T02440156 $
 
PHTO - Hilo, Hawaii, USA
Distance from station: SE 114mi, 183km
Updated: Wed, 28-Feb-2024 3:53pm HST
Partly Cloudy
Partly Cloudy
 Wind from NE
Wind: NE 12 mph , 19 km/h
Temperature: 75°F , 24°C
Dew Point: 64°F , 18°C
Humidity: 69%
Barometer: 30.06 inHg , 1017.9 hPa
Clouds: Partly Cloudy
Visibility: 10 miles , 16 km
Cloud details: Partly Cloudy 5000 ft
2024/02/29 01:53 PHTO 290153Z 05010KT 10SM SCT050 24/18 A3006 RMK AO2 SLP177 T02440178
PHJR - Kalaeloa, Hawaii, USA
Distance from station: WNW 117mi, 189km
Updated: Wed, 28-Feb-2024 3:53pm HST
Clear
Clear
 Wind from NE
Wind: NE 12 mph , 19 km/h, Gust: 21 mph , 33 km/h
Temperature: 75°F , 24°C
Dew Point: 61°F , 16°C
Humidity: 61%
Barometer: 30.06 inHg , 1017.9 hPa
Clouds: Clear
Visibility: 10 miles , 16 km
2024/02/29 01:53 PHJR 290153Z 04010G18KT 10SM CLR 24/16 A3006 RMK AO2 SLP185 T02440156
 
PHHI - Wheeler Afb/Oahu, Hawaii, USA
Distance from station: WNW 120mi, 193km
Updated: Wed, 28-Feb-2024 3:55pm HST
Few Clouds
Few Clouds
 Wind from E
Wind: E 9 mph , 15 km/h
Temperature: 72°F , 22°C
Dew Point: 61°F , 16°C
Humidity: 69%
Barometer: 30.08 inHg , 1018.6 hPa
Clouds: Few Clouds
Visibility: 10 miles , 16 km
Cloud details: Few Clouds 5500 ft
2024/02/29 01:55 PHHI 290155Z AUTO 08008KT 10SM FEW055 22/16 A3008 RMK AO2 DZE00 SLP180 P0000 T02190157 $
PHLI - Lihue/Kauai Is, Hawaii, USA
Distance from station: WNW 209mi, 336km
Updated: Wed, 28-Feb-2024 3:53pm HST
Mostly Cloudy
Mostly Cloudy
 Wind from NE
Wind: NE 20 mph , 31 km/h, Gust: 29 mph , 46 km/h
Temperature: 73°F , 23°C
Dew Point: 64°F , 18°C
Humidity: 74%
Barometer: 30.10 inHg , 1019.3 hPa
Clouds: Mostly Cloudy
Visibility: 10 miles , 16 km
Cloud details: Few Clouds 2000 ft
Partly Cloudy 3800 ft
Mostly Cloudy 7000 ft
2024/02/29 01:53 PHLI 290153Z 04017G25KT 10SM FEW020 SCT038 BKN070 23/18 A3010 RMK AO2 SLP190 T02280178
 
PHBK - Barking Sands/Ka, Hawaii, USA
Distance from station: WNW 237mi, 382km
Updated: Wed, 28-Feb-2024 3:51pm HST
Clear
Clear
 Wind from NW
Wind: NW 8 mph , 13 km/h
Temperature: 75°F , 24°C
Dew Point: 64°F , 18°C
Humidity: 69%
Barometer: 30.06 inHg , 1017.9 hPa
Clouds: Clear
Visibility: 10 miles , 16 km
2024/02/29 01:51 PHBK 290151Z AUTO 32007KT 10SM CLR 24/18 A3006 RMK AO2 SLP180 T02440178 $